Time;durP1;ratioP1;P1;durP2;ratioP2;P2;SDS_P1;SDS_P2;PMS_P1;PMS_P2;Temp;Humidity;BMP_temperature;BMP_pressure;BME280_temperature;BME280_humidity;BME280_pressure;Samples;Min_cycle;Max_cycle;Signal;HPM_P1;HPM_P2
2022/09/04 00:00:00;;;;;;;;;;;19.90;99.90;20.00;99520.00;;;;339218;28;84298;-85
2022/09/04 00:00:13;;;;;;;;;;;19.90;99.90;20.00;99526.00;;;;339424;28;83400;-86
2022/09/04 00:00:25;;;;;;;;;;;19.90;99.90;19.90;99522.00;;;;336137;28;84758;-85
2022/09/04 00:00:47;;;;;;;;;;;19.90;99.90;19.80;99519.00;;;;338049;28;83308;-85
2022/09/04 00:01:09;;;;;;;;;;;19.90;99.90;20.00;99516.00;;;;336525;28;84132;-85
2022/09/04 00:01:51;;;;;;;;;;;19.80;99.90;19.90;99515.00;;;;336555;28;82580;-86
2022/09/04 00:02:36;;;;;;;;;;;19.90;99.90;19.90;99521.00;;;;336376;28;85653;-85
2022/09/04 00:03:06;;;;;;;;;;;19.90;99.90;20.00;99517.00;;;;336593;28;83859;-85
2022/09/04 00:03:40;;;;;;;;;;;19.90;99.90;19.90;99524.00;;;;336983;28;85941;-85
2022/09/04 00:04:05;;;;;;;;;;;19.90;99.90;20.00;99519.00;;;;337696;28;83530;-85
2022/09/04 00:04:35;;;;;;;;;;;19.90;99.90;19.90;99507.00;;;;339256;28;84119;-86
2022/09/04 00:04:56;;;;;;;;;;;19.80;99.90;20.00;99524.00;;;;336746;28;82582;-85
2022/09/04 00:05:27;;;;;;;;;;;19.80;99.90;19.90;99515.00;;;;336372;28;88046;-85
2022/09/04 00:05:52;;;;;;;;;;;19.80;99.90;20.00;99519.00;;;;336566;28;82473;-86
2022/09/04 00:06:08;;;;;;;;;;;19.80;99.90;19.90;99516.00;;;;337755;28;84308;-85
2022/09/04 00:06:23;;;;;;;;;;;19.80;99.90;19.90;99512.00;;;;337800;28;83667;-85
2022/09/04 00:06:39;;;;;;;;;;;19.80;99.90;20.00;99518.00;;;;337746;28;83967;-85
2022/09/04 00:07:12;;;;;;;;;;;19.80;99.90;19.90;99512.00;;;;338008;28;83481;-86
2022/09/04 00:07:42;;;;;;;;;;;19.80;99.90;19.80;99530.00;;;;339251;28;85552;-85
2022/09/04 00:08:12;;;;;;;;;;;19.80;99.90;19.80;99513.00;;;;339337;28;82451;-85
2022/09/04 00:08:35;;;;;;;;;;;19.80;99.90;19.90;99520.00;;;;337675;28;82750;-86
2022/09/04 00:09:11;;;;;;;;;;;19.80;99.90;19.80;99523.00;;;;336438;28;83548;-85
2022/09/04 00:09:52;;;;;;;;;;;19.80;99.90;19.90;99522.00;;;;339109;28;84903;-85
2022/09/04 00:10:10;;;;;;;;;;;19.80;99.90;19.80;99522.00;;;;338169;28;82644;-86
2022/09/04 00:10:35;;;;;;;;;;;19.80;99.90;19.80;99521.00;;;;339133;28;85257;-86
2022/09/04 00:11:06;;;;;;;;;;;19.80;99.90;19.80;99523.00;;;;338088;28;82196;-86
2022/09/04 00:11:38;;;;;;;;;;;19.80;99.90;19.90;99516.00;;;;336455;28;85515;-85
2022/09/04 00:12:04;;;;;;;;;;;19.80;99.90;20.00;99515.00;;;;336566;28;82535;-85
2022/09/04 00:12:16;;;;;;;;;;;19.80;99.90;20.00;99516.00;;;;337505;28;84245;-85
2022/09/04 00:12:31;;;;;;;;;;;19.80;99.90;20.10;99521.00;;;;336469;28;82590;-85
2022/09/04 00:12:53;;;;;;;;;;;19.80;99.90;20.00;99512.00;;;;339717;28;86148;-86
2022/09/04 00:13:08;;;;;;;;;;;19.80;99.90;19.90;99514.00;;;;341811;28;83294;-86
2022/09/04 00:13:26;;;;;;;;;;;19.80;99.90;19.90;99511.00;;;;341784;28;83843;-86
2022/09/04 00:13:45;;;;;;;;;;;19.80;99.90;19.80;99507.00;;;;339179;28;82711;-86
2022/09/04 00:14:03;;;;;;;;;;;19.80;99.90;19.80;99515.00;;;;341579;28;85810;-86
2022/09/04 00:14:18;;;;;;;;;;;19.80;99.90;19.80;99515.00;;;;343468;28;82294;-85
2022/09/04 00:14:44;;;;;;;;;;;19.80;99.90;19.80;99519.00;;;;343274;28;83836;-86
2022/09/04 00:15:05;;;;;;;;;;;19.80;99.90;19.90;99518.00;;;;340620;28;83227;-86
2022/09/04 00:15:20;;;;;;;;;;;19.80;99.90;19.90;99517.00;;;;340311;28;85874;-86
2022/09/04 00:15:35;;;;;;;;;;;19.80;99.90;19.80;99515.00;;;;341750;28;83484;-86
2022/09/04 00:15:48;;;;;;;;;;;19.80;99.90;19.90;99514.00;;;;341997;28;84446;-86
2022/09/04 00:16:11;;;;;;;;;;;19.80;99.90;19.90;99513.00;;;;339331;28;83349;-85
2022/09/04 00:16:27;;;;;;;;;;;19.80;99.90;19.90;99511.00;;;;349827;27;85642;-85
2022/09/04 00:16:41;;;;;;;;;;;19.80;99.90;19.80;99519.00;;;;348591;27;83534;-86
2022/09/04 00:16:58;;;;;;;;;;;19.80;99.90;19.90;99520.00;;;;347524;28;82560;-85
2022/09/04 00:17:31;;;;;;;;;;;19.80;99.90;19.80;99516.00;;;;346233;28;83264;-85
2022/09/04 00:17:50;;;;;;;;;;;19.80;99.90;19.90;99514.00;;;;345773;28;88226;-86
2022/09/04 00:18:04;;;;;;;;;;;19.80;99.90;19.90;99514.00;;;;347290;28;82598;-86
2022/09/04 00:18:19;;;;;;;;;;;19.80;99.90;19.90;99518.00;;;;347471;28;85260;-86
2022/09/04 00:18:44;;;;;;;;;;;19.80;99.90;19.90;99512.00;;;;347192;28;82616;-85
2022/09/04 00:19:12;;;;;;;;;;;19.70;99.90;19.90;99511.00;;;;344638;28;83710;-86
2022/09/04 00:19:30;;;;;;;;;;;19.80;99.90;19.80;99515.00;;;;348699;27;83327;-86
2022/09/04 00:20:04;;;;;;;;;;;19.80;99.90;19.80;99503.00;;;;347404;28;83708;-86
2022/09/04 00:20:27;;;;;;;;;;;19.70;99.90;19.80;99504.00;;;;347526;28;82294;-86
2022/09/04 00:20:51;;;;;;;;;;;19.70;99.90;19.70;99507.00;;;;344613;28;83640;-86
2022/09/04 00:21:09;;;;;;;;;;;19.70;99.90;19.70;99509.00;;;;348608;27;83576;-86
2022/09/04 00:21:37;;;;;;;;;;;19.70;99.90;19.80;99507.00;;;;347441;28;84912;-85
2022/09/04 00:21:51;;;;;;;;;;;19.70;99.90;19.70;99502.00;;;;347561;28;83168;-85
2022/09/04 00:22:09;;;;;;;;;;;19.70;99.90;19.70;99503.00;;;;346118;28;84818;-85
2022/09/04 00:22:25;;;;;;;;;;;19.70;99.90;19.80;99505.00;;;;346151;28;83331;-86
2022/09/04 00:22:45;;;;;;;;;;;19.70;99.90;19.80;99508.00;;;;347325;28;84747;-86
2022/09/04 00:23:12;;;;;;;;;;;19.70;99.90;19.90;99495.00;;;;348713;27;83312;-85
2022/09/04 00:23:31;;;;;;;;;;;19.70;99.90;20.00;99499.00;;;;348751;27;85859;-86
2022/09/04 00:23:56;;;;;;;;;;;19.70;99.90;20.00;99505.00;;;;348772;27;82563;-86
2022/09/04 00:24:10;;;;;;;;;;;19.70;99.90;20.00;99498.00;;;;345984;28;85835;-85
2022/09/04 00:24:35;;;;;;;;;;;19.70;99.90;19.90;99505.00;;;;349038;27;82191;-85
2022/09/04 00:24:53;;;;;;;;;;;19.70;99.90;19.90;99498.00;;;;345864;28;86340;-85
2022/09/04 00:25:16;;;;;;;;;;;19.70;99.90;19.80;99500.00;;;;347562;28;83313;-86
2022/09/04 00:25:47;;;;;;;;;;;19.80;99.90;19.80;99496.00;;;;348806;27;83991;-85
2022/09/04 00:26:04;;;;;;;;;;;19.70;99.90;19.90;99497.00;;;;345933;28;82447;-86
2022/09/04 00:26:32;;;;;;;;;;;19.80;99.90;19.80;99491.00;;;;345467;28;83812;-85
2022/09/04 00:27:02;;;;;;;;;;;19.70;99.90;19.80;99491.00;;;;347506;28;83835;-85
2022/09/04 00:27:22;;;;;;;;;;;19.80;99.90;19.70;99489.00;;;;348496;27;86505;-83
2022/09/04 00:27:43;;;;;;;;;;;19.80;99.90;19.80;99502.00;;;;346182;28;82272;-85
2022/09/04 00:28:01;;;;;;;;;;;19.70;99.90;19.90;99495.00;;;;347359;28;85421;-85
2022/09/04 00:28:27;;;;;;;;;;;19.70;99.90;19.80;99495.00;;;;346132;28;83185;-85
2022/09/04 00:28:44;;;;;;;;;;;19.80;99.90;19.80;99498.00;;;;347053;28;88166;-86
2022/09/04 00:28:59;;;;;;;;;;;19.70;99.90;19.80;99502.00;;;;347498;28;83203;-86
2022/09/04 00:29:43;;;;;;;;;;;19.80;99.90;19.90;99495.00;;;;346014;28;85191;-85
2022/09/04 00:30:06;;;;;;;;;;;19.70;99.90;19.90;99496.00;;;;340708;28;83252;-85
2022/09/04 00:30:19;;;;;;;;;;;19.70;99.90;19.80;99495.00;;;;340537;28;83930;-85
2022/09/04 00:30:31;;;;;;;;;;;19.70;99.90;19.80;99494.00;;;;344668;28;83515;-86
2022/09/04 00:30:50;;;;;;;;;;;19.70;99.90;19.80;99497.00;;;;343211;28;83949;-85
2022/09/04 00:31:18;;;;;;;;;;;19.80;99.90;19.80;99498.00;;;;342032;28;82413;-86
2022/09/04 00:31:35;;;;;;;;;;;19.80;99.90;19.80;99495.00;;;;341667;28;86135;-86
2022/09/04 00:31:53;;;;;;;;;;;19.80;99.90;19.80;99496.00;;;;341841;28;83497;-85
2022/09/04 00:32:10;;;;;;;;;;;19.70;99.90;19.80;99494.00;;;;341716;28;85309;-85
2022/09/04 00:32:31;;;;;;;;;;;19.80;99.90;19.80;99499.00;;;;342051;28;82474;-86
2022/09/04 00:33:00;;;;;;;;;;;19.80;99.90;19.80;99500.00;;;;341758;28;84970;-85
2022/09/04 00:33:27;;;;;;;;;;;19.70;99.90;19.90;99497.00;;;;340667;28;82138;-86
2022/09/04 00:34:19;;;;;;;;;;;19.70;99.90;20.00;99496.00;;;;343211;28;86131;-85
2022/09/04 00:34:52;;;;;;;;;;;19.70;99.90;20.10;99491.00;;;;341541;28;83496;-84
2022/09/04 00:35:14;;;;;;;;;;;19.80;99.90;20.00;99505.00;;;;344360;28;86306;-85
2022/09/04 00:35:55;;;;;;;;;;;19.80;99.90;20.10;99500.00;;;;340730;28;82311;-86
2022/09/04 00:36:07;;;;;;;;;;;19.80;99.90;20.00;99493.00;;;;341541;28;84297;-85
2022/09/04 00:36:20;;;;;;;;;;;19.80;99.90;20.00;99496.00;;;;342014;28;83471;-85
2022/09/04 00:36:34;;;;;;;;;;;19.80;99.90;20.00;99497.00;;;;344521;28;84839;-86
2022/09/04 00:36:53;;;;;;;;;;;19.80;99.90;20.00;99495.00;;;;341751;28;82768;-86
2022/09/04 00:37:06;;;;;;;;;;;19.80;99.90;19.90;99489.00;;;;341840;28;85484;-86
2022/09/04 00:37:20;;;;;;;;;;;19.80;99.90;19.90;99490.00;;;;340635;28;82437;-86
2022/09/04 00:37:50;;;;;;;;;;;19.80;99.90;19.90;99495.00;;;;341677;28;86398;-86
2022/09/04 00:38:06;;;;;;;;;;;19.80;99.90;19.80;99497.00;;;;343082;28;82454;-85
2022/09/04 00:38:39;;;;;;;;;;;19.80;99.90;19.80;99485.00;;;;344485;28;86094;-85
2022/09/04 00:38:54;;;;;;;;;;;19.80;99.90;19.60;99487.00;;;;340615;28;83253;-85
2022/09/04 00:39:11;;;;;;;;;;;19.80;99.90;19.70;99488.00;;;;340531;28;84867;-86
2022/09/04 00:39:33;;;;;;;;;;;19.80;99.90;19.70;99485.00;;;;343385;28;82476;-85
2022/09/04 00:40:07;;;;;;;;;;;19.80;99.90;19.80;99489.00;;;;341606;28;86599;-86
2022/09/04 00:40:42;;;;;;;;;;;19.70;99.90;19.90;99493.00;;;;342012;28;83307;-85
2022/09/04 00:41:03;;;;;;;;;;;19.70;99.90;20.10;99496.00;;;;343065;28;86862;-84
2022/09/04 00:41:23;;;;;;;;;;;19.80;99.90;20.10;99491.00;;;;343193;28;82629;-85
2022/09/04 00:41:56;;;;;;;;;;;19.80;99.90;19.90;99487.00;;;;344582;28;83677;-85
2022/09/04 00:42:32;;;;;;;;;;;19.80;99.90;19.80;99495.00;;;;341985;28;83348;-85
2022/09/04 00:42:44;;;;;;;;;;;19.80;99.90;19.70;99489.00;;;;341801;28;83738;-85
2022/09/04 00:43:20;;;;;;;;;;;19.80;99.90;19.80;99492.00;;;;341880;28;83496;-85
2022/09/04 00:44:03;;;;;;;;;;;19.80;99.90;19.80;99497.00;;;;342835;28;85489;-86
2022/09/04 00:44:36;;;;;;;;;;;19.80;99.90;19.80;99497.00;;;;344701;28;82314;-86
2022/09/04 00:45:11;;;;;;;;;;;19.80;99.90;19.70;99494.00;;;;341856;28;85005;-85
2022/09/04 00:46:04;;;;;;;;;;;19.70;99.90;19.80;99496.00;;;;337582;28;83530;-85
2022/09/04 00:46:36;;;;;;;;;;;19.70;99.90;19.70;99493.00;;;;336467;28;83622;-85
2022/09/04 00:46:58;;;;;;;;;;;19.70;99.90;19.60;99492.00;;;;335961;28;83447;-85
2022/09/04 00:47:39;;;;;;;;;;;19.70;99.90;19.70;99493.00;;;;341918;28;83078;-86
2022/09/04 00:48:00;;;;;;;;;;;19.70;99.90;19.80;99495.00;;;;340342;28;83361;-84
2022/09/04 00:48:22;;;;;;;;;;;19.70;99.90;19.80;99495.00;;;;340521;28;84083;-85
2022/09/04 00:48:48;;;;;;;;;;;19.70;99.90;19.80;99489.00;;;;333927;28;82459;-85
2022/09/04 00:49:18;;;;;;;;;;;19.70;99.90;19.80;99487.00;;;;334985;29;85821;-85
2022/09/04 00:49:35;;;;;;;;;;;19.70;99.90;19.70;99491.00;;;;335243;29;83289;-86
2022/09/04 00:50:48;;;;;;;;;;;19.70;99.90;19.70;99493.00;;;;335123;29;84112;-85
2022/09/04 00:51:14;;;;;;;;;;;19.70;99.90;19.80;99498.00;;;;340480;28;83321;-85
2022/09/04 00:51:29;;;;;;;;;;;19.70;99.90;19.90;99491.00;;;;341851;28;85674;-85
2022/09/04 00:52:10;;;;;;;;;;;19.70;99.90;19.90;99498.00;;;;341852;28;83550;-85
2022/09/04 00:52:47;;;;;;;;;;;19.70;99.90;19.70;99492.00;;;;340576;28;84536;-86
2022/09/04 00:53:22;;;;;;;;;;;19.60;99.90;19.80;99500.00;;;;338018;28;83301;-85
2022/09/04 00:53:49;;;;;;;;;;;19.70;99.90;19.80;99495.00;;;;339186;28;84786;-85
2022/09/04 00:54:04;;;;;;;;;;;19.70;99.90;19.70;99501.00;;;;340612;28;82636;-85
2022/09/04 00:54:49;;;;;;;;;;;19.60;99.90;19.70;99495.00;;;;340454;28;84715;-86
2022/09/04 00:55:25;;;;;;;;;;;19.70;99.90;19.70;99501.00;;;;341875;28;83260;-86
2022/09/04 00:55:43;;;;;;;;;;;19.70;99.90;19.60;99503.00;;;;341638;28;88042;-86
2022/09/04 00:56:14;;;;;;;;;;;19.60;99.90;19.70;99495.00;;;;341960;28;84167;-85
2022/09/04 00:56:47;;;;;;;;;;;19.60;99.90;19.80;99503.00;;;;341657;28;86153;-86
2022/09/04 00:57:17;;;;;;;;;;;19.60;99.90;19.70;99505.00;;;;341298;28;83114;-85
2022/09/04 00:58:20;;;;;;;;;;;19.60;99.90;19.70;99504.00;;;;340407;28;86341;-85
2022/09/04 00:58:56;;;;;;;;;;;19.60;99.90;19.60;99501.00;;;;339212;28;83663;-85
2022/09/04 01:00:19;;;;;;;;;;;19.60;99.90;19.60;99502.00;;;;337763;28;85221;-86
2022/09/04 01:00:29;;;;;;;;;;;19.60;99.90;19.50;99497.00;;;;334859;29;83381;-86
2022/09/04 01:00:40;;;;;;;;;;;19.60;99.90;19.60;99499.00;;;;329911;29;85967;-85
2022/09/04 01:00:51;;;;;;;;;;;19.60;99.90;19.60;99493.00;;;;333947;29;83326;-85
2022/09/04 01:01:02;;;;;;;;;;;19.50;99.90;19.70;99489.00;;;;333875;29;86579;-85
2022/09/04 01:01:17;;;;;;;;;;;19.60;99.90;19.80;99490.00;;;;332688;29;83422;-85
2022/09/04 01:01:28;;;;;;;;;;;19.60;99.90;19.80;99499.00;;;;334016;29;83150;-85
2022/09/04 01:01:38;;;;;;;;;;;19.50;99.90;19.70;99496.00;;;;332695;29;84274;-86
2022/09/04 01:01:54;;;;;;;;;;;19.60;99.90;19.70;99496.00;;;;335037;29;86928;-86
2022/09/04 01:02:25;;;;;;;;;;;19.60;99.90;19.90;99496.00;;;;332681;29;82462;-85
2022/09/04 01:02:53;;;;;;;;;;;19.60;99.90;19.70;99500.00;;;;331159;29;85209;-86
2022/09/04 01:03:06;;;;;;;;;;;19.60;99.90;19.60;99501.00;;;;332706;29;83375;-86
2022/09/04 01:03:22;;;;;;;;;;;19.60;99.90;19.60;99503.00;;;;333797;29;85239;-85
2022/09/04 01:03:48;;;;;;;;;;;19.60;99.90;19.70;99500.00;;;;334047;29;83525;-86
2022/09/04 01:03:58;;;;;;;;;;;19.60;99.90;19.80;99505.00;;;;333816;29;86123;-86
2022/09/04 01:04:33;;;;;;;;;;;19.60;99.90;19.80;99498.00;;;;333901;29;82611;-85
2022/09/04 01:04:59;;;;;;;;;;;19.60;99.90;19.80;99497.00;;;;333939;29;86181;-85
2022/09/04 01:05:43;;;;;;;;;;;19.60;99.90;19.70;99497.00;;;;331525;29;83452;-86
2022/09/04 01:05:55;;;;;;;;;;;19.60;99.90;19.60;99500.00;;;;332602;29;86369;-86
2022/09/04 01:06:38;;;;;;;;;;;19.60;99.90;19.70;99496.00;;;;330212;29;82458;-86
2022/09/04 01:07:01;;;;;;;;;;;19.60;99.90;19.70;99498.00;;;;327676;29;84265;-85
2022/09/04 01:07:41;;;;;;;;;;;19.60;99.90;19.70;99497.00;;;;325750;29;83380;-84
2022/09/04 01:08:07;;;;;;;;;;;19.60;99.90;19.60;99500.00;;;;328988;29;85299;-85
2022/09/04 01:08:39;;;;;;;;;;;19.60;99.90;19.70;99497.00;;;;330891;29;83624;-86
2022/09/04 01:09:29;;;;;;;;;;;19.60;99.90;19.80;99503.00;;;;329778;29;88669;-86
2022/09/04 01:09:55;;;;;;;;;;;19.60;99.90;19.70;99499.00;;;;350907;27;75443;-85
2022/09/04 01:10:18;;;;;;;;;;;19.60;99.90;19.90;99496.00;;;;350214;27;83309;-85
2022/09/04 01:10:38;;;;;;;;;;;19.60;99.90;19.80;99494.00;;;;347194;28;84733;-85
2022/09/04 01:11:04;;;;;;;;;;;19.60;99.90;19.80;99492.00;;;;347056;28;82380;-85
2022/09/04 01:11:47;;;;;;;;;;;19.60;99.90;19.80;99495.00;;;;345832;28;83320;-85
2022/09/04 01:12:11;;;;;;;;;;;19.60;99.90;19.70;99498.00;;;;344198;28;83368;-85
2022/09/04 01:12:47;;;;;;;;;;;19.60;99.90;19.80;99500.00;;;;342836;28;86798;-85
2022/09/04 01:13:05;;;;;;;;;;;19.60;99.90;19.70;99493.00;;;;344501;28;83292;-85
2022/09/04 01:13:23;;;;;;;;;;;19.60;99.90;19.90;99501.00;;;;344105;28;86392;-86
2022/09/04 01:13:40;;;;;;;;;;;19.60;99.90;20.00;99490.00;;;;342935;28;83517;-85
2022/09/04 01:14:01;;;;;;;;;;;19.60;99.90;19.90;99496.00;;;;343015;28;84231;-85
2022/09/04 01:14:14;;;;;;;;;;;19.70;99.90;19.90;99496.00;;;;344305;28;84108;-85
2022/09/04 01:14:51;;;;;;;;;;;19.70;99.90;19.70;99500.00;;;;343127;28;83974;-85
2022/09/04 01:15:13;;;;;;;;;;;19.70;99.90;19.70;99500.00;;;;343136;28;83517;-85
2022/09/04 01:15:40;;;;;;;;;;;19.70;99.90;19.70;99490.00;;;;344487;28;84980;-86
2022/09/04 01:15:55;;;;;;;;;;;19.60;99.90;19.70;99499.00;;;;344386;28;83461;-85
2022/09/04 01:16:16;;;;;;;;;;;19.60;99.90;19.70;99495.00;;;;345838;28;85042;-85
2022/09/04 01:16:40;;;;;;;;;;;19.60;99.90;19.70;99501.00;;;;345899;28;83169;-85
2022/09/04 01:17:09;;;;;;;;;;;19.60;99.90;19.70;99499.00;;;;344487;28;85122;-85
2022/09/04 01:17:28;;;;;;;;;;;19.60;99.90;19.70;99495.00;;;;343234;28;83201;-85
2022/09/04 01:17:42;;;;;;;;;;;19.60;99.90;19.70;99494.00;;;;344516;28;84804;-85
2022/09/04 01:18:09;;;;;;;;;;;19.60;99.90;19.60;99490.00;;;;344478;28;83290;-85
2022/09/04 01:18:52;;;;;;;;;;;19.60;99.90;19.90;99493.00;;;;344445;28;84782;-85
2022/09/04 01:19:13;;;;;;;;;;;19.60;99.90;19.60;99493.00;;;;344204;28;83413;-86
2022/09/04 01:20:04;;;;;;;;;;;19.60;99.90;19.60;99498.00;;;;343126;28;84906;-85
2022/09/04 01:20:20;;;;;;;;;;;19.60;99.90;19.50;99500.00;;;;340181;28;83701;-85
2022/09/04 01:21:05;;;;;;;;;;;19.60;99.90;19.50;99503.00;;;;340031;28;86636;-85
2022/09/04 01:21:32;;;;;;;;;;;19.50;99.90;19.40;99497.00;;;;340979;28;83321;-85
2022/09/04 01:22:08;;;;;;;;;;;19.50;99.90;19.30;99497.00;;;;341782;28;84755;-86
2022/09/04 01:22:32;;;;;;;;;;;19.50;99.90;19.30;99505.00;;;;341879;28;83251;-85
2022/09/04 01:22:56;;;;;;;;;;;19.50;99.90;19.40;99496.00;;;;342619;28;83930;-85
2022/09/04 01:23:40;;;;;;;;;;;19.40;99.90;19.20;99497.00;;;;341625;28;83988;-85
2022/09/04 01:24:01;;;;;;;;;;;19.40;99.90;19.20;99504.00;;;;340113;28;87078;-85
2022/09/04 01:24:35;;;;;;;;;;;19.40;99.90;19.10;99498.00;;;;340144;28;84392;-85
2022/09/04 01:24:47;;;;;;;;;;;19.40;99.90;19.30;99495.00;;;;341683;28;84100;-86
2022/09/04 01:25:07;;;;;;;;;;;19.40;99.90;19.30;99493.00;;;;341794;28;82407;-85
2022/09/04 01:25:56;;;;;;;;;;;19.40;99.90;19.40;99497.00;;;;338851;28;84083;-86
2022/09/04 01:26:14;;;;;;;;;;;19.30;99.90;19.30;99503.00;;;;340373;28;82310;-86
2022/09/04 01:26:44;;;;;;;;;;;19.30;99.90;19.20;99498.00;;;;341048;28;82627;-85
2022/09/04 01:27:08;;;;;;;;;;;19.30;99.90;19.20;99504.00;;;;341840;28;83227;-86
2022/09/04 01:27:36;;;;;;;;;;;19.30;99.90;19.10;99499.00;;;;341577;28;83150;-85
2022/09/04 01:28:18;;;;;;;;;;;19.30;99.90;19.10;99502.00;;;;340517;28;82452;-85
2022/09/04 01:28:55;;;;;;;;;;;19.20;99.90;19.10;99507.00;;;;340444;28;83569;-85
2022/09/04 01:29:12;;;;;;;;;;;19.20;99.90;19.20;99509.00;;;;341777;28;83307;-85
2022/09/04 01:29:42;;;;;;;;;;;19.20;99.90;19.20;99505.00;;;;340286;28;87778;-85
2022/09/04 01:30:07;;;;;;;;;;;19.20;99.90;19.10;99507.00;;;;341732;28;83369;-85
2022/09/04 01:30:19;;;;;;;;;;;19.20;99.90;19.00;99504.00;;;;343094;28;84206;-84
2022/09/04 01:30:40;;;;;;;;;;;19.20;99.90;19.00;99503.00;;;;342887;28;83417;-85
2022/09/04 01:31:22;;;;;;;;;;;19.10;99.90;19.00;99506.00;;;;341776;28;83911;-85
2022/09/04 01:31:43;;;;;;;;;;;19.10;99.90;19.00;99502.00;;;;338976;28;82514;-85
2022/09/04 01:32:04;;;;;;;;;;;19.10;99.90;19.00;99511.00;;;;341620;28;86057;-85
2022/09/04 01:32:39;;;;;;;;;;;19.10;99.90;19.00;99507.00;;;;340116;28;83414;-85
2022/09/04 01:33:07;;;;;;;;;;;19.10;99.90;19.00;99506.00;;;;340347;28;86200;-85
2022/09/04 01:33:53;;;;;;;;;;;19.10;99.90;19.00;99510.00;;;;342781;28;83673;-85
2022/09/04 01:34:20;;;;;;;;;;;19.10;99.90;19.00;99513.00;;;;341401;28;88369;-85
2022/09/04 01:34:49;;;;;;;;;;;19.00;99.90;18.90;99502.00;;;;340020;28;82351;-85
2022/09/04 01:35:22;;;;;;;;;;;19.00;99.90;19.00;99508.00;;;;340383;28;84831;-84
2022/09/04 01:35:43;;;;;;;;;;;19.00;99.90;19.00;99508.00;;;;340394;28;83192;-85
2022/09/04 01:36:18;;;;;;;;;;;19.00;99.90;19.00;99507.00;;;;340284;28;83982;-85
2022/09/04 01:36:46;;;;;;;;;;;19.00;99.90;19.00;99511.00;;;;339098;28;83194;-85
2022/09/04 01:37:17;;;;;;;;;;;19.00;99.90;19.00;99510.00;;;;339058;28;85095;-86
2022/09/04 01:37:47;;;;;;;;;;;19.00;99.90;19.10;99519.00;;;;340114;28;82672;-85
2022/09/04 01:38:20;;;;;;;;;;;19.00;99.90;19.10;99510.00;;;;340239;28;85115;-85
2022/09/04 01:38:47;;;;;;;;;;;19.00;99.90;19.10;99508.00;;;;341539;28;82571;-85
2022/09/04 01:39:00;;;;;;;;;;;19.00;99.90;19.10;99506.00;;;;341606;28;85571;-85
2022/09/04 01:39:12;;;;;;;;;;;19.00;99.90;19.20;99508.00;;;;340293;28;82230;-85
2022/09/04 01:39:25;;;;;;;;;;;19.00;99.90;19.20;99510.00;;;;341531;28;85381;-85
2022/09/04 01:39:36;;;;;;;;;;;19.00;99.90;19.10;99510.00;;;;341716;28;83383;-85
2022/09/04 01:39:58;;;;;;;;;;;19.00;99.90;19.10;99512.00;;;;339042;28;85560;-86
2022/09/04 01:40:27;;;;;;;;;;;19.00;99.90;19.20;99506.00;;;;341445;28;83514;-85
2022/09/04 01:40:49;;;;;;;;;;;19.00;99.90;19.30;99506.00;;;;341624;28;85412;-85
2022/09/04 01:41:10;;;;;;;;;;;19.00;99.90;19.30;99506.00;;;;341759;28;83309;-85
2022/09/04 01:41:30;;;;;;;;;;;19.00;99.90;19.20;99508.00;;;;341339;28;86256;-85
2022/09/04 01:42:04;;;;;;;;;;;19.00;99.90;19.10;99504.00;;;;340503;28;82423;-85
2022/09/04 01:42:39;;;;;;;;;;;19.00;99.90;19.10;99514.00;;;;341611;28;84992;-85
2022/09/04 01:42:56;;;;;;;;;;;19.00;99.90;19.10;99509.00;;;;342840;28;83303;-85
2022/09/04 01:43:19;;;;;;;;;;;19.00;99.90;19.10;99511.00;;;;341488;28;87890;-85
2022/09/04 01:43:31;;;;;;;;;;;19.00;99.90;19.00;99506.00;;;;340449;28;83066;-86
2022/09/04 01:43:43;;;;;;;;;;;19.00;99.90;19.00;99504.00;;;;340342;28;84521;-85
2022/09/04 01:43:55;;;;;;;;;;;19.00;99.90;19.00;99497.00;;;;341627;28;82332;-85
2022/09/04 01:44:08;;;;;;;;;;;19.00;99.90;19.00;99503.00;;;;341699;28;83772;-86
2022/09/04 01:44:20;;;;;;;;;;;19.00;99.90;19.00;99505.00;;;;341779;28;82241;-85
2022/09/04 01:44:32;;;;;;;;;;;19.00;99.90;19.00;99503.00;;;;342970;28;85202;-85
2022/09/04 01:44:44;;;;;;;;;;;19.00;99.90;19.00;99498.00;;;;341619;28;83609;-85
2022/09/04 01:44:56;;;;;;;;;;;19.00;99.90;19.00;99505.00;;;;339079;28;83766;-85
2022/09/04 01:45:09;;;;;;;;;;;19.00;99.90;19.10;99506.00;;;;339074;28;83163;-85
2022/09/04 01:45:32;;;;;;;;;;;19.00;99.90;19.00;99502.00;;;;341677;28;85338;-85
2022/09/04 01:46:06;;;;;;;;;;;19.00;99.90;19.00;99506.00;;;;339051;28;82585;-85
2022/09/04 01:46:43;;;;;;;;;;;19.00;99.90;19.00;99511.00;;;;338976;28;85337;-85
2022/09/04 01:46:58;;;;;;;;;;;19.00;99.90;19.00;99516.00;;;;340392;28;83136;-85
2022/09/04 01:47:16;;;;;;;;;;;19.00;99.90;19.00;99511.00;;;;340389;28;83988;-85
2022/09/04 01:47:39;;;;;;;;;;;19.00;99.90;19.00;99514.00;;;;338899;28;83268;-85
2022/09/04 01:47:51;;;;;;;;;;;19.00;99.90;18.90;99507.00;;;;341508;28;84799;-85
2022/09/04 01:48:03;;;;;;;;;;;19.00;99.90;18.90;99506.00;;;;340261;28;83524;-85
2022/09/04 01:48:21;;;;;;;;;;;19.00;99.90;18.90;99510.00;;;;340307;28;84959;-85
2022/09/04 01:49:10;;;;;;;;;;;19.00;99.90;19.00;99516.00;;;;340283;28;82402;-85
2022/09/04 01:49:22;;;;;;;;;;;19.00;99.90;19.00;99514.00;;;;341434;28;86665;-85
2022/09/04 01:49:45;;;;;;;;;;;19.00;99.90;19.00;99511.00;;;;340346;28;83315;-85
2022/09/04 01:50:03;;;;;;;;;;;18.90;99.90;19.00;99516.00;;;;338807;28;84714;-86
2022/09/04 01:50:20;;;;;;;;;;;18.90;99.90;18.90;99515.00;;;;341485;28;83570;-85
2022/09/04 01:50:32;;;;;;;;;;;18.90;99.90;18.90;99519.00;;;;338678;28;85604;-85
2022/09/04 01:50:45;;;;;;;;;;;18.90;99.90;19.00;99506.00;;;;340265;28;83412;-85
2022/09/04 01:50:59;;;;;;;;;;;18.90;99.90;19.00;99510.00;;;;340035;28;85714;-85
2022/09/04 01:51:17;;;;;;;;;;;18.90;99.90;19.10;99509.00;;;;340338;28;83143;-85
2022/09/04 01:51:39;;;;;;;;;;;18.90;99.90;19.00;99515.00;;;;340206;28;83762;-86
2022/09/04 01:52:26;;;;;;;;;;;18.90;99.90;19.00;99519.00;;;;337685;28;83281;-85
2022/09/04 01:52:50;;;;;;;;;;;18.90;99.90;19.00;99521.00;;;;340218;28;83786;-86
2022/09/04 01:53:11;;;;;;;;;;;19.00;99.90;19.10;99514.00;;;;340373;28;83280;-85
2022/09/04 01:53:24;;;;;;;;;;;19.00;99.90;19.00;99507.00;;;;339972;28;86575;-84
2022/09/04 01:53:36;;;;;;;;;;;19.00;99.90;18.90;99512.00;;;;339025;28;83293;-86
2022/09/04 01:54:24;;;;;;;;;;;18.90;99.90;18.90;99514.00;;;;337376;28;85639;-85
2022/09/04 01:54:36;;;;;;;;;;;18.90;99.90;18.90;99524.00;;;;338961;28;83195;-85
2022/09/04 01:54:57;;;;;;;;;;;18.90;99.90;18.90;99520.00;;;;338937;28;84816;-86
2022/09/04 01:55:29;;;;;;;;;;;18.90;99.90;19.00;99525.00;;;;340428;28;83286;-85
2022/09/04 01:56:13;;;;;;;;;;;18.90;99.90;19.00;99527.00;;;;340285;28;83696;-85
2022/09/04 01:56:35;;;;;;;;;;;18.90;99.90;18.90;99528.00;;;;339086;28;82261;-85
2022/09/04 01:56:52;;;;;;;;;;;18.90;99.90;19.00;99525.00;;;;340370;28;83742;-85
2022/09/04 01:57:13;;;;;;;;;;;18.90;99.90;19.00;99531.00;;;;339024;28;82412;-85
2022/09/04 01:57:30;;;;;;;;;;;18.90;99.90;19.00;99519.00;;;;338961;28;84058;-85
2022/09/04 01:58:19;;;;;;;;;;;18.90;99.90;18.90;99531.00;;;;338822;28;83444;-85
2022/09/04 01:59:02;;;;;;;;;;;18.90;99.90;18.90;99535.00;;;;338764;28;85027;-85
2022/09/04 01:59:24;;;;;;;;;;;18.90;99.90;18.90;99528.00;;;;337434;28;83534;-85
2022/09/04 01:59:42;;;;;;;;;;;18.90;99.90;18.90;99525.00;;;;344093;28;87333;-84
2022/09/04 02:00:08;;;;;;;;;;;18.90;99.90;18.90;99529.00;;;;344339;28;83228;-85
2022/09/04 02:00:21;;;;;;;;;;;18.80;99.90;18.90;99529.00;;;;344359;28;84782;-85
2022/09/04 02:01:20;;;;;;;;;;;18.90;99.90;19.00;99531.00;;;;345533;28;83484;-85
2022/09/04 02:01:50;;;;;;;;;;;18.90;99.90;19.00;99531.00;;;;345743;28;85029;-85
2022/09/04 02:02:13;;;;;;;;;;;18.80;99.90;19.00;99526.00;;;;344472;28;83390;-85
2022/09/04 02:02:31;;;;;;;;;;;18.80;99.90;19.00;99530.00;;;;342913;28;87357;-85
2022/09/04 02:02:59;;;;;;;;;;;18.90;99.90;19.00;99527.00;;;;344004;28;83521;-85